createdAt,value
2017-07-12T00:01:53.571Z,80.50
2017-07-12T00:04:21.646Z,80.90
2017-07-12T00:06:49.738Z,81.10
2017-07-12T00:09:17.804Z,81.10
2017-07-12T00:11:45.888Z,81.50
2017-07-12T00:14:13.989Z,81.50
2017-07-12T00:16:42.075Z,82.20
2017-07-12T00:19:10.157Z,82.50
2017-07-12T00:21:38.241Z,83.70
2017-07-12T00:24:06.516Z,84.60
2017-07-12T00:26:34.609Z,85.10
2017-07-12T00:29:02.696Z,85.00
2017-07-12T00:31:30.759Z,85.90
2017-07-12T00:33:58.849Z,85.90
2017-07-12T00:36:26.927Z,86.60
2017-07-12T00:38:55.005Z,86.60
2017-07-12T00:41:23.080Z,87.60
2017-07-12T00:43:51.292Z,87.50
2017-07-12T00:46:19.359Z,88.90
2017-07-12T00:48:47.443Z,89.70
2017-07-12T00:51:15.533Z,89.40
2017-07-12T00:53:43.614Z,89.20
2017-07-12T00:56:11.707Z,90.40
2017-07-12T00:58:39.785Z,90.20
2017-07-12T01:01:07.867Z,90.50
2017-07-12T01:03:35.958Z,90.50
2017-07-12T01:06:04.943Z,90.20
2017-07-12T01:08:33.015Z,90.20
2017-07-12T01:11:01.099Z,90.80
2017-07-12T01:13:29.354Z,91.10
2017-07-12T01:15:57.436Z,91.70
2017-07-12T01:18:25.509Z,92.00
2017-07-12T01:20:53.603Z,92.70
2017-07-12T01:23:21.843Z,92.50
2017-07-12T01:25:49.932Z,92.40
2017-07-12T01:28:17.996Z,92.40
2017-07-12T01:30:46.093Z,92.50
2017-07-12T01:33:14.176Z,92.30
2017-07-12T01:35:42.263Z,92.20
2017-07-12T01:38:10.360Z,92.10
2017-07-12T01:40:38.427Z,92.10
2017-07-12T01:43:06.511Z,92.40
2017-07-12T01:45:34.588Z,92.60
2017-07-12T01:48:02.676Z,92.80
2017-07-12T01:50:30.763Z,92.80
2017-07-12T01:52:58.852Z,92.60
2017-07-12T01:55:26.929Z,92.50
2017-07-12T01:57:55.011Z,92.50
2017-07-12T02:00:23.300Z,92.40
2017-07-12T02:02:51.435Z,91.80
2017-07-12T02:05:19.521Z,91.40
2017-07-12T02:07:47.598Z,91.20
2017-07-12T02:10:15.700Z,90.60
2017-07-12T02:12:44.674Z,91.20
2017-07-12T02:15:12.755Z,91.20
2017-07-12T02:17:40.846Z,91.10
2017-07-12T02:20:08.915Z,91.10
2017-07-12T02:22:37.043Z,91.10
2017-07-12T02:25:05.228Z,91.20
2017-07-12T02:27:33.317Z,91.00
2017-07-12T02:30:01.397Z,91.60
2017-07-12T02:32:29.474Z,91.40
2017-07-12T02:34:57.549Z,91.80
2017-07-12T02:37:25.637Z,92.00
2017-07-12T02:39:53.711Z,92.00
2017-07-12T02:42:21.923Z,91.70
2017-07-12T02:44:49.997Z,92.00
2017-07-12T02:47:18.073Z,92.20
2017-07-12T02:49:46.223Z,91.90
2017-07-12T02:52:14.511Z,92.10
2017-07-12T02:54:42.597Z,91.80
2017-07-12T02:57:10.672Z,92.40
2017-07-12T02:59:38.762Z,93.00
2017-07-12T03:02:06.853Z,93.50
2017-07-12T03:04:34.929Z,93.60
2017-07-12T03:07:03.025Z,93.70
2017-07-12T03:09:31.111Z,93.50
2017-07-12T03:11:59.191Z,93.60
2017-07-12T03:14:27.268Z,93.40
2017-07-12T03:16:55.335Z,93.60
2017-07-12T03:19:23.427Z,93.70
2017-07-12T03:21:51.503Z,93.50
2017-07-12T03:24:19.592Z,94.00
2017-07-12T03:26:47.683Z,93.60
2017-07-12T03:29:15.800Z,93.70
2017-07-12T03:31:43.861Z,93.50
2017-07-12T03:34:11.945Z,93.20
2017-07-12T03:36:40.026Z,93.10
2017-07-12T03:39:08.111Z,93.10
2017-07-12T03:41:36.197Z,93.20
2017-07-12T03:44:04.273Z,93.20
2017-07-12T03:46:32.363Z,93.00
2017-07-12T03:49:00.431Z,93.10
2017-07-12T03:51:28.504Z,92.80
2017-07-12T03:53:56.596Z,92.60
2017-07-12T03:56:24.672Z,92.70
2017-07-12T03:58:52.776Z,92.50
2017-07-12T04:01:20.844Z,92.40
2017-07-12T04:03:48.933Z,92.40
2017-07-12T04:06:17.013Z,92.50
2017-07-12T04:08:45.110Z,92.50
2017-07-12T04:11:13.185Z,92.40
2017-07-12T04:13:41.268Z,91.90
2017-07-12T04:16:09.347Z,92.60
2017-07-12T04:18:37.441Z,92.00
2017-07-12T04:21:05.517Z,92.00
2017-07-12T04:23:33.599Z,91.90
2017-07-12T04:26:01.697Z,91.60
2017-07-12T04:28:29.768Z,91.40
2017-07-12T04:30:57.851Z,91.40
2017-07-12T04:33:25.939Z,91.60
2017-07-12T04:35:54.173Z,91.80
2017-07-12T04:38:22.238Z,91.90
2017-07-12T04:40:50.328Z,91.40
2017-07-12T04:43:18.409Z,91.20
2017-07-12T04:45:46.493Z,90.80
2017-07-12T04:48:14.574Z,90.10
2017-07-12T04:50:42.677Z,89.80
2017-07-12T04:53:10.766Z,89.90
2017-07-12T04:55:38.848Z,90.20
2017-07-12T04:58:06.931Z,89.50
2017-07-12T05:00:35.021Z,88.60
2017-07-12T05:03:03.121Z,88.80
2017-07-12T05:05:31.199Z,90.30
2017-07-12T05:07:59.293Z,89.60
2017-07-12T05:10:27.372Z,89.60
2017-07-12T05:12:55.460Z,90.10
2017-07-12T05:15:23.540Z,89.30
2017-07-12T05:17:51.624Z,88.90
2017-07-12T05:20:19.921Z,89.00
2017-07-12T05:22:47.999Z,88.90
2017-07-12T05:25:16.376Z,90.40
2017-07-12T05:27:44.468Z,90.20
2017-07-12T05:30:12.559Z,89.90
2017-07-12T05:32:40.636Z,90.40
2017-07-12T05:35:08.726Z,90.20
2017-07-12T05:37:36.806Z,90.10
2017-07-12T05:40:04.887Z,90.20
2017-07-12T05:42:32.967Z,89.90
2017-07-12T05:45:01.047Z,89.90
2017-07-12T05:47:29.128Z,89.80
2017-07-12T05:49:57.220Z,87.80
2017-07-12T05:52:25.356Z,87.60
2017-07-12T05:54:53.480Z,87.30
2017-07-12T05:57:21.567Z,88.70
2017-07-12T05:59:49.663Z,87.20
2017-07-12T06:02:17.745Z,87.60
2017-07-12T06:04:45.823Z,87.90
2017-07-12T06:07:13.906Z,88.10
2017-07-12T06:09:41.991Z,86.80
2017-07-12T06:12:10.084Z,86.00
2017-07-12T06:14:38.167Z,84.90
2017-07-12T06:17:06.242Z,84.60
2017-07-12T06:19:34.335Z,83.80
2017-07-12T06:24:59.140Z,79.90
2017-07-12T06:27:27.219Z,81.40
2017-07-12T06:29:55.303Z,79.90
2017-07-12T06:32:23.376Z,80.20
2017-07-12T06:34:51.472Z,79.90
2017-07-12T06:37:19.554Z,79.50
2017-07-12T06:39:47.641Z,80.20
2017-07-12T06:42:15.716Z,80.00
2017-07-12T06:44:43.795Z,81.80
2017-07-12T06:47:11.879Z,79.40
2017-07-12T06:49:39.964Z,80.40
2017-07-12T06:52:08.053Z,80.00
2017-07-12T06:54:36.148Z,81.00
2017-07-12T06:57:04.233Z,82.00
2017-07-12T06:59:32.315Z,82.20
2017-07-12T07:02:00.398Z,82.20
2017-07-12T07:04:28.479Z,80.70
2017-07-12T07:06:56.559Z,81.80
2017-07-12T07:09:24.649Z,81.50
2017-07-12T07:11:52.735Z,81.50
2017-07-12T07:14:20.819Z,82.20
2017-07-12T07:16:48.903Z,80.30
2017-07-12T07:19:16.972Z,78.60
2017-07-12T07:21:45.063Z,78.60
2017-07-12T07:24:13.132Z,77.40
2017-07-12T07:26:41.218Z,77.90
2017-07-12T07:29:09.297Z,77.90
2017-07-12T07:31:37.379Z,76.80
2017-07-12T07:34:05.476Z,74.40
2017-07-12T07:36:33.565Z,75.10
2017-07-12T07:39:01.641Z,72.90
2017-07-12T07:41:30.674Z,72.10
2017-07-12T07:43:58.756Z,67.80
2017-07-12T07:46:26.839Z,68.20
2017-07-12T07:48:54.940Z,66.30
2017-07-12T07:51:23.009Z,66.30
2017-07-12T07:53:51.084Z,64.00
2017-07-12T07:56:19.167Z,65.10
2017-07-12T07:58:47.242Z,63.90
2017-07-12T08:01:15.319Z,66.40
2017-07-12T08:03:43.387Z,66.30
2017-07-12T08:06:11.478Z,67.50
2017-07-12T08:08:39.536Z,66.60
2017-07-12T08:11:07.629Z,65.50
2017-07-12T08:13:35.712Z,63.40
2017-07-12T08:16:03.804Z,64.40
2017-07-12T08:18:31.888Z,63.90
2017-07-12T08:20:59.989Z,65.00
2017-07-12T08:23:28.059Z,64.50
2017-07-12T08:25:56.139Z,64.40
2017-07-12T08:28:24.236Z,64.20
2017-07-12T08:30:52.309Z,65.10
2017-07-12T08:33:20.396Z,66.50
2017-07-12T08:35:48.480Z,65.90
2017-07-12T08:38:16.563Z,65.50
2017-07-12T08:40:44.643Z,66.40
2017-07-12T08:43:12.727Z,67.10
2017-07-12T08:45:40.827Z,66.90
2017-07-12T08:48:08.908Z,65.50
2017-07-12T08:50:36.990Z,66.90
2017-07-12T08:53:05.065Z,68.00
2017-07-12T08:55:33.151Z,67.40
2017-07-12T08:58:01.232Z,66.70
2017-07-12T09:00:29.311Z,67.60
2017-07-12T09:02:57.413Z,67.50
2017-07-12T09:05:25.479Z,66.90
2017-07-12T09:07:53.561Z,66.00
2017-07-12T09:10:21.636Z,67.20
2017-07-12T09:12:49.709Z,64.50
2017-07-12T09:15:17.803Z,64.70
2017-07-12T09:17:45.876Z,64.10
2017-07-12T09:20:13.956Z,63.90
2017-07-12T09:22:42.033Z,63.40
2017-07-12T09:35:03.364Z,63.10
2017-07-12T09:37:31.597Z,62.80
2017-07-12T09:39:59.680Z,64.30
2017-07-12T09:42:27.753Z,63.70
2017-07-12T09:44:55.838Z,64.90
2017-07-12T09:47:23.922Z,64.30
2017-07-12T09:49:51.999Z,61.60
2017-07-12T09:52:20.097Z,61.40
2017-07-12T09:54:48.155Z,61.00
2017-07-12T09:57:16.230Z,60.60
2017-07-12T09:59:44.321Z,59.90
2017-07-12T10:02:12.403Z,60.60
2017-07-12T10:04:40.484Z,61.40
2017-07-12T10:07:08.969Z,60.40
2017-07-12T10:09:37.013Z,60.00
2017-07-12T10:12:05.088Z,58.10
2017-07-12T10:14:33.166Z,57.30
2017-07-12T10:17:01.259Z,56.90
2017-07-12T10:19:29.334Z,55.60
2017-07-12T10:21:57.430Z,57.60
2017-07-12T10:24:25.517Z,58.50
2017-07-12T10:26:53.600Z,57.80
2017-07-12T10:29:21.692Z,58.50
2017-07-12T10:31:49.785Z,58.40
2017-07-12T10:34:17.855Z,59.00
2017-07-12T10:36:45.931Z,58.60
2017-07-12T10:39:14.020Z,58.90
2017-07-12T10:41:42.097Z,59.20
2017-07-12T10:44:10.187Z,58.60
2017-07-12T10:46:38.267Z,58.00
2017-07-12T10:49:06.344Z,57.60
2017-07-12T10:51:34.415Z,56.90
2017-07-12T10:54:02.501Z,56.40
2017-07-12T10:56:30.580Z,55.60
2017-07-12T10:58:58.667Z,55.70
2017-07-12T11:01:26.746Z,55.60
2017-07-12T11:03:54.825Z,55.60
2017-07-12T11:06:22.918Z,57.00
2017-07-12T11:08:50.991Z,57.50
2017-07-12T11:11:19.076Z,57.50
2017-07-12T11:13:47.172Z,58.60
2017-07-12T11:16:15.253Z,60.50
2017-07-12T11:18:44.348Z,61.40
2017-07-12T11:21:12.468Z,60.40
2017-07-12T11:23:40.543Z,59.90
2017-07-12T11:26:08.623Z,61.60
2017-07-12T11:28:36.705Z,64.50
2017-07-12T11:31:04.791Z,64.50
2017-07-12T11:33:32.885Z,64.30
2017-07-12T11:36:00.956Z,63.80
2017-07-12T11:38:29.039Z,62.50
2017-07-12T11:40:57.163Z,62.80
2017-07-12T11:43:25.235Z,60.50
2017-07-12T11:45:53.315Z,60.10
2017-07-12T11:48:21.403Z,59.10
2017-07-12T11:50:49.479Z,58.50
2017-07-12T11:53:17.565Z,59.30
2017-07-12T11:55:45.641Z,58.30
2017-07-12T11:58:13.722Z,58.00
2017-07-12T12:00:41.792Z,58.90
2017-07-12T12:03:09.884Z,60.30
2017-07-12T12:05:37.964Z,59.90
2017-07-12T12:08:06.048Z,60.20
2017-07-12T12:10:34.128Z,60.70
2017-07-12T12:13:02.211Z,60.60
2017-07-12T12:15:30.287Z,61.60
2017-07-12T12:17:58.384Z,62.40
2017-07-12T12:20:26.457Z,62.70
2017-07-12T12:22:54.539Z,62.20
2017-07-12T12:25:22.628Z,62.80
2017-07-12T12:27:50.719Z,62.80
2017-07-12T12:30:18.805Z,62.70
2017-07-12T12:32:46.881Z,63.50
2017-07-12T12:35:14.957Z,63.50
2017-07-12T12:37:43.092Z,61.40
2017-07-12T12:40:11.180Z,61.40
2017-07-12T12:42:39.247Z,62.60
2017-07-12T12:45:07.331Z,63.10
2017-07-12T12:47:35.408Z,65.20
2017-07-12T12:50:03.499Z,65.00
2017-07-12T12:52:31.581Z,64.90
2017-07-12T12:54:59.667Z,66.50
2017-07-12T12:57:27.767Z,66.20
2017-07-12T12:59:55.848Z,66.50
2017-07-12T13:02:23.939Z,71.90
2017-07-12T13:04:57.612Z,70.70
2017-07-12T13:07:25.688Z,70.00
2017-07-12T13:09:53.783Z,71.60
2017-07-12T13:12:21.867Z,73.20
2017-07-12T13:14:49.963Z,72.60
2017-07-12T13:17:18.052Z,73.60
2017-07-12T13:19:46.131Z,74.00
2017-07-12T13:22:14.219Z,74.70
2017-07-12T13:24:42.291Z,74.00
2017-07-12T13:27:10.426Z,74.10
2017-07-12T13:29:38.462Z,73.80
2017-07-12T13:32:06.561Z,81.40
2017-07-12T13:34:34.659Z,86.10
2017-07-12T13:37:02.736Z,92.20
2017-07-12T13:39:30.824Z,94.00
2017-07-12T13:41:58.919Z,96.20
2017-07-12T13:44:27.015Z,98.70
2017-07-12T13:46:55.092Z,98.50
2017-07-12T13:49:23.172Z,97.30
2017-07-12T13:51:51.257Z,96.80
2017-07-12T13:54:19.356Z,96.60
2017-07-12T13:56:47.433Z,95.90
2017-07-12T13:59:15.517Z,95.00
2017-07-12T14:01:43.608Z,95.00
2017-07-12T14:04:11.684Z,94.50
2017-07-12T14:06:39.765Z,94.00
2017-07-12T14:09:07.847Z,93.20
2017-07-12T14:11:35.940Z,93.00
2017-07-12T14:14:04.037Z,91.80
2017-07-12T14:16:32.124Z,91.10
2017-07-12T14:19:00.214Z,89.00
2017-07-12T14:21:28.295Z,89.70
2017-07-12T14:23:56.375Z,88.60
2017-07-12T14:26:24.455Z,88.00
2017-07-12T14:28:52.531Z,87.60
2017-07-12T14:31:20.627Z,86.70
2017-07-12T14:33:48.707Z,85.00
2017-07-12T14:36:16.797Z,82.40
2017-07-12T14:38:44.875Z,80.10
2017-07-12T14:41:12.957Z,80.60
2017-07-12T14:43:41.044Z,81.00
2017-07-12T14:46:09.111Z,81.90
2017-07-12T14:48:37.203Z,81.20
2017-07-12T14:51:05.276Z,82.20
2017-07-12T14:53:33.376Z,80.70
2017-07-12T14:56:01.460Z,77.50
2017-07-12T14:58:29.548Z,78.90
2017-07-12T15:00:57.809Z,75.50
2017-07-12T15:03:26.012Z,76.20
2017-07-12T15:05:54.860Z,74.80
2017-07-12T15:08:22.951Z,74.90
2017-07-12T15:10:51.028Z,74.50
2017-07-12T15:13:19.123Z,76.20
2017-07-12T15:15:47.199Z,76.90
2017-07-12T15:18:15.273Z,75.40
2017-07-12T15:20:43.356Z,76.70
2017-07-12T15:23:11.488Z,77.40
2017-07-12T15:25:39.560Z,75.60
2017-07-12T15:28:08.441Z,76.00
2017-07-12T15:30:36.709Z,74.30
2017-07-12T15:33:04.987Z,74.30
2017-07-12T15:35:33.122Z,73.90
2017-07-12T15:38:01.319Z,73.20
2017-07-12T15:40:29.404Z,74.10
2017-07-12T15:42:57.667Z,75.30
2017-07-12T15:45:25.941Z,76.70
2017-07-12T15:47:54.217Z,77.90
2017-07-12T15:50:22.382Z,79.60
2017-07-12T15:52:50.466Z,81.70
2017-07-12T15:55:18.648Z,86.40
2017-07-12T15:57:46.724Z,89.40
2017-07-12T16:00:14.840Z,92.80
2017-07-12T16:02:43.059Z,93.80
2017-07-12T16:05:11.131Z,94.50
2017-07-12T16:07:39.217Z,96.30
2017-07-12T16:10:07.300Z,96.30
2017-07-12T16:12:35.380Z,97.80
2017-07-12T16:15:03.540Z,99.30
2017-07-12T16:17:31.624Z,99.00
2017-07-12T16:19:59.732Z,99.90
2017-07-12T16:22:27.791Z,99.90
2017-07-12T16:24:55.873Z,99.90
2017-07-12T16:27:23.959Z,99.90
2017-07-12T16:29:52.042Z,99.90
2017-07-12T16:32:20.125Z,99.90
2017-07-12T16:34:48.251Z,99.20
2017-07-12T16:37:16.325Z,99.90
2017-07-12T16:39:44.416Z,99.40
2017-07-12T16:42:12.502Z,97.80
2017-07-12T16:44:40.576Z,98.10
2017-07-12T16:47:09.036Z,98.00
2017-07-12T16:49:37.088Z,98.90
2017-07-12T16:52:05.824Z,98.90
2017-07-12T16:54:33.902Z,98.00
2017-07-12T16:57:01.990Z,99.40
2017-07-12T16:59:30.065Z,98.40
2017-07-12T17:01:58.140Z,97.60
2017-07-12T17:04:26.222Z,98.60
2017-07-12T17:06:54.299Z,98.00
2017-07-12T17:09:22.380Z,98.50
2017-07-12T17:11:50.468Z,98.20
2017-07-12T17:14:18.543Z,98.30
2017-07-12T17:16:46.616Z,98.10
2017-07-12T17:19:14.691Z,98.20
2017-07-12T17:21:42.771Z,97.30
2017-07-12T17:24:10.857Z,97.20
2017-07-12T17:26:38.936Z,97.90
2017-07-12T17:29:07.015Z,97.70
2017-07-12T17:31:35.175Z,98.20
2017-07-12T17:34:03.191Z,97.30
2017-07-12T17:36:31.265Z,97.50
2017-07-12T17:38:59.352Z,97.00
2017-07-12T17:41:27.431Z,97.40
2017-07-12T17:43:55.520Z,97.10
2017-07-12T17:46:23.599Z,97.10
2017-07-12T17:48:51.679Z,96.90
2017-07-12T17:51:19.765Z,96.80
2017-07-12T17:53:47.847Z,96.30
2017-07-12T17:56:15.920Z,96.90
2017-07-12T17:58:44.000Z,96.50
2017-07-12T18:01:12.068Z,96.90
2017-07-12T18:03:40.163Z,97.50
2017-07-12T18:06:08.235Z,99.40
2017-07-12T18:08:36.320Z,99.90
2017-07-12T18:11:04.407Z,99.90
2017-07-12T18:13:32.499Z,99.90
2017-07-12T18:16:00.580Z,99.90
2017-07-12T18:18:28.656Z,99.90
2017-07-12T18:20:56.737Z,99.90
2017-07-12T18:23:24.812Z,99.90
2017-07-12T18:25:52.895Z,98.30
2017-07-12T18:28:20.980Z,97.90
2017-07-12T18:30:49.068Z,96.70
2017-07-12T18:33:17.141Z,97.30
2017-07-12T18:35:45.216Z,95.10
2017-07-12T18:38:13.302Z,96.10
2017-07-12T18:40:41.383Z,97.20
2017-07-12T18:43:09.473Z,96.70
2017-07-12T18:45:37.572Z,98.30
2017-07-12T18:48:05.660Z,96.90
2017-07-12T18:50:33.740Z,95.40
2017-07-12T18:53:02.681Z,95.70
2017-07-12T18:55:30.752Z,94.90
2017-07-12T18:57:58.844Z,95.30
2017-07-12T19:00:26.929Z,95.50
2017-07-12T19:02:55.016Z,95.20
2017-07-12T19:05:23.114Z,96.10
2017-07-12T19:07:51.196Z,95.20
2017-07-12T19:10:19.268Z,96.10
2017-07-12T19:12:47.363Z,96.30
2017-07-12T19:15:15.448Z,96.30
2017-07-12T19:17:43.528Z,96.10
2017-07-12T19:20:11.613Z,96.20
2017-07-12T19:22:39.697Z,96.40
2017-07-12T19:25:07.769Z,98.20
2017-07-12T19:27:35.845Z,97.10
2017-07-12T19:30:03.924Z,97.80
2017-07-12T19:32:32.000Z,98.60
2017-07-12T19:35:00.088Z,98.20
2017-07-12T19:37:28.176Z,97.90
2017-07-12T19:39:56.254Z,97.80
2017-07-12T19:42:24.329Z,97.70
2017-07-12T19:44:52.425Z,99.70
2017-07-12T19:47:20.508Z,99.90
2017-07-12T19:49:48.580Z,99.90
2017-07-12T19:52:16.661Z,99.00
2017-07-12T19:54:44.737Z,98.50
2017-07-12T19:57:12.818Z,97.60
2017-07-12T19:59:40.894Z,98.00
2017-07-12T20:02:08.986Z,97.90
2017-07-12T20:04:37.065Z,98.30
2017-07-12T20:07:05.150Z,98.90
2017-07-12T20:09:33.234Z,99.30
2017-07-12T20:12:01.322Z,98.60
2017-07-12T20:14:29.388Z,99.60
2017-07-12T20:16:57.568Z,99.90
2017-07-12T20:19:25.864Z,99.90
2017-07-12T20:21:53.935Z,99.90
2017-07-12T20:24:22.024Z,99.90
2017-07-12T20:26:50.100Z,99.90
2017-07-12T20:29:18.197Z,99.90
2017-07-12T20:31:46.268Z,99.90
2017-07-12T20:34:15.183Z,99.90
2017-07-12T20:36:43.514Z,99.90
2017-07-12T20:39:11.596Z,99.90
2017-07-12T20:41:39.684Z,99.90
2017-07-12T20:44:07.770Z,99.90
2017-07-12T20:46:35.867Z,99.90
2017-07-12T20:49:04.024Z,99.90
2017-07-12T20:51:32.101Z,99.90
2017-07-12T20:54:00.175Z,99.90
2017-07-12T20:56:28.274Z,99.90
2017-07-12T20:58:56.354Z,99.90
2017-07-12T21:01:24.432Z,99.90
2017-07-12T21:03:52.508Z,99.90
2017-07-12T21:06:20.686Z,99.90
2017-07-12T21:08:48.817Z,99.90
2017-07-12T21:11:16.923Z,99.90
2017-07-12T21:13:45.029Z,99.90
2017-07-12T21:16:13.291Z,99.90
2017-07-12T21:18:41.360Z,99.90
2017-07-12T21:21:09.437Z,99.90
2017-07-12T21:23:37.523Z,99.90
2017-07-12T21:26:05.827Z,99.90
2017-07-12T21:28:33.911Z,99.90
2017-07-12T21:31:02.001Z,99.90
2017-07-12T21:33:30.097Z,99.90
2017-07-12T21:35:58.220Z,99.90
2017-07-12T21:38:26.314Z,99.90
2017-07-12T21:40:54.393Z,99.90
2017-07-12T21:43:22.638Z,99.90
2017-07-12T21:45:50.715Z,99.90
2017-07-12T21:48:18.976Z,99.90
2017-07-12T21:50:47.064Z,99.90
2017-07-12T21:53:32.642Z,99.90
2017-07-12T21:56:18.068Z,99.90
2017-07-12T21:59:03.737Z,99.90
2017-07-12T22:01:49.175Z,99.90
2017-07-12T22:04:34.769Z,99.90
2017-07-12T22:07:20.359Z,99.90
2017-07-12T22:10:05.745Z,99.90
2017-07-12T22:12:51.323Z,99.90
2017-07-12T22:15:36.741Z,99.90
2017-07-12T22:18:22.247Z,99.90
2017-07-12T22:21:07.832Z,99.10
2017-07-12T22:23:54.220Z,99.10
2017-07-12T22:26:39.860Z,99.10
2017-07-12T22:29:25.547Z,99.70
2017-07-12T22:32:10.996Z,98.90
2017-07-12T22:34:56.692Z,98.70
2017-07-12T22:37:30.487Z,98.90
2017-07-12T22:40:04.146Z,98.70
2017-07-12T22:42:37.960Z,98.30
2017-07-12T22:45:06.219Z,98.40
2017-07-12T22:47:34.292Z,98.80
2017-07-12T22:50:02.370Z,98.30
2017-07-12T22:52:30.447Z,98.00
2017-07-12T22:54:58.531Z,98.20
2017-07-12T22:57:26.612Z,97.90
2017-07-12T22:59:54.701Z,98.20
2017-07-12T23:02:22.789Z,97.60
2017-07-12T23:04:50.927Z,97.70
2017-07-12T23:07:19.028Z,97.50
2017-07-12T23:09:47.200Z,96.80
2017-07-12T23:12:15.400Z,95.60
2017-07-12T23:14:43.505Z,95.90
2017-07-12T23:17:11.581Z,95.40
2017-07-12T23:19:39.654Z,94.50
2017-07-12T23:22:07.747Z,94.50
2017-07-12T23:24:35.908Z,93.30
2017-07-12T23:27:03.997Z,93.00
2017-07-12T23:29:32.078Z,91.90
2017-07-12T23:32:00.168Z,90.80
2017-07-12T23:34:28.248Z,91.10
2017-07-12T23:37:02.009Z,90.60
2017-07-12T23:39:30.080Z,90.30
2017-07-12T23:41:58.180Z,88.40
2017-07-12T23:44:26.263Z,87.60
2017-07-12T23:46:54.328Z,86.40
2017-07-12T23:49:22.417Z,85.90
2017-07-12T23:51:50.511Z,85.90
2017-07-12T23:54:18.589Z,86.50
2017-07-12T23:56:46.673Z,86.50
2017-07-12T23:59:14.760Z,87.70
